Time;durP1;ratioP1;P1;durP2;ratioP2;P2;SDS_P1;SDS_P2;PMS_P1;PMS_P2;Temp;Humidity;BMP_temperature;BMP_pressure;BME280_temperature;BME280_humidity;BME280_pressure;Samples;Min_cycle;Max_cycle;Signal;HPM_P1;HPM_P2
2022/08/23 00:02:07;;;;;;;3.00;2.70;;;;;;;;;;5090575;28;20722;-66
2022/08/23 00:04:35;;;;;;;2.80;2.60;;;;;;;;;;5091386;28;20795;-66
2022/08/23 00:07:02;;;;;;;3.00;2.10;;;;;;;;;;5090399;28;20449;-67
2022/08/23 00:09:31;;;;;;;2.40;2.20;;;;;;;;;;5090630;28;20453;-67
2022/08/23 00:12:05;;;;;;;3.20;2.80;;;;;;;;;;5090802;28;20455;-67
2022/08/23 00:14:33;;;;;;;2.93;2.63;;;;;;;;;;5083636;28;20452;-67
2022/08/23 00:17:01;;;;;;;3.13;2.20;;;;;;;;;;5090608;28;20476;-67
2022/08/23 00:19:28;;;;;;;3.60;3.30;;;;;;;;;;5090765;28;20460;-66
2022/08/23 00:21:56;;;;;;;3.27;2.80;;;;;;;;;;5090807;28;20452;-67
2022/08/23 00:24:23;;;;;;;6.00;2.37;;;;;;;;;;5090822;28;20449;-66
2022/08/23 00:26:57;;;;;;;3.10;2.50;;;;;;;;;;5077455;28;20463;-66
2022/08/23 00:29:26;;;;;;;3.00;2.53;;;;;;;;;;5090202;28;20459;-66
2022/08/23 00:31:53;;;;;;;4.20;2.50;;;;;;;;;;5089220;28;20510;-66
2022/08/23 00:34:20;;;;;;;2.73;2.40;;;;;;;;;;5090233;28;20469;-66
2022/08/23 00:36:48;;;;;;;6.10;2.57;;;;;;;;;;5089940;28;20477;-66
2022/08/23 00:39:15;;;;;;;2.83;2.63;;;;;;;;;;5089973;28;20441;-66
2022/08/23 00:41:42;;;;;;;2.83;2.63;;;;;;;;;;5090646;28;20449;-66
2022/08/23 00:49:46;;;;;;;3.87;2.30;;;;;;;;;;5085989;28;20440;-66
2022/08/23 00:52:15;;;;;;;2.50;2.30;;;;;;;;;;5090311;28;20449;-66
2022/08/23 00:54:43;;;;;;;3.13;2.83;;;;;;;;;;5090473;28;20851;-66
2022/08/23 00:57:12;;;;;;;2.83;2.53;;;;;;;;;;5089521;28;20476;-66
2022/08/23 00:59:40;;;;;;;3.10;2.27;;;;;;;;;;5089850;28;20473;-66
2022/08/23 01:02:08;;;;;;;2.87;2.67;;;;;;;;;;5089547;28;20526;-66
2022/08/23 01:04:39;;;;;;;3.20;2.47;;;;;;;;;;5089937;28;20448;-66
2022/08/23 01:07:10;;;;;;;2.30;2.10;;;;;;;;;;5089448;28;20457;-66
2022/08/23 01:09:38;;;;;;;4.10;2.53;;;;;;;;;;5089417;28;20455;-66
2022/08/23 01:12:08;;;;;;;2.67;2.33;;;;;;;;;;5089655;28;20444;-66
2022/08/23 01:14:39;;;;;;;2.30;2.07;;;;;;;;;;5090094;28;20463;-68
2022/08/23 01:17:11;;;;;;;2.97;2.23;;;;;;;;;;5083109;28;20851;-66
2022/08/23 01:19:39;;;;;;;2.00;1.80;;;;;;;;;;5089138;28;20825;-67
2022/08/23 01:22:12;;;;;;;2.43;2.23;;;;;;;;;;5089086;28;20463;-66
2022/08/23 01:24:41;;;;;;;2.43;2.23;;;;;;;;;;5089977;28;20533;-66
2022/08/23 01:27:09;;;;;;;2.43;2.23;;;;;;;;;;5089577;28;20962;-66
2022/08/23 01:29:36;;;;;;;5.80;1.93;;;;;;;;;;5089209;28;20456;-66
2022/08/23 01:32:04;;;;;;;2.93;2.63;;;;;;;;;;5089208;28;20461;-66
2022/08/23 01:34:31;;;;;;;2.60;2.27;;;;;;;;;;5089231;28;20495;-66
2022/08/23 01:37:00;;;;;;;2.43;2.23;;;;;;;;;;5089080;28;20484;-66
2022/08/23 01:39:27;;;;;;;5.80;2.47;;;;;;;;;;5088996;28;20463;-66
2022/08/23 01:41:56;;;;;;;2.40;2.13;;;;;;;;;;5089255;28;20936;-66
2022/08/23 01:44:23;;;;;;;2.90;2.70;;;;;;;;;;5089426;28;20779;-66
2022/08/23 01:46:50;;;;;;;2.53;2.33;;;;;;;;;;5089342;28;20458;-66
2022/08/23 01:49:17;;;;;;;3.30;2.30;;;;;;;;;;5089248;28;20448;-66
2022/08/23 01:51:44;;;;;;;2.10;1.90;;;;;;;;;;5089637;28;20547;-66
2022/08/23 01:54:12;;;;;;;2.50;2.30;;;;;;;;;;5089825;28;20474;-66
2022/08/23 01:56:40;;;;;;;3.90;2.30;;;;;;;;;;5089354;28;20479;-66
2022/08/23 01:59:09;;;;;;;2.23;1.80;;;;;;;;;;5075598;28;20543;-66
2022/08/23 02:01:37;;;;;;;2.60;2.40;;;;;;;;;;5089320;28;20460;-66
2022/08/23 02:04:05;;;;;;;3.23;2.03;;;;;;;;;;5088561;28;20446;-66
2022/08/23 02:06:32;;;;;;;3.07;2.40;;;;;;;;;;5089285;28;20953;-66
2022/08/23 02:09:03;;;;;;;1.90;1.80;;;;;;;;;;5088773;28;20444;-66
2022/08/23 02:11:31;;;;;;;2.13;1.93;;;;;;;;;;5089350;28;20460;-66
2022/08/23 02:14:00;;;;;;;2.23;2.07;;;;;;;;;;5089245;28;20447;-66
2022/08/23 02:16:30;;;;;;;9.07;2.50;;;;;;;;;;5089152;28;20477;-66
2022/08/23 02:18:58;;;;;;;3.00;2.53;;;;;;;;;;5088421;28;20452;-66
2022/08/23 02:21:25;;;;;;;3.10;2.63;;;;;;;;;;5089123;28;20534;-66
2022/08/23 02:23:52;;;;;;;2.67;2.17;;;;;;;;;;5089005;28;20531;-66
2022/08/23 02:26:20;;;;;;;3.23;2.30;;;;;;;;;;5089192;28;20444;-66
2022/08/23 02:28:51;;;;;;;7.90;2.73;;;;;;;;;;5088255;28;20448;-66
2022/08/23 02:31:18;;;;;;;3.10;2.80;;;;;;;;;;5090746;28;20544;-66
2022/08/23 02:33:47;;;;;;;3.40;2.53;;;;;;;;;;5092492;28;20567;-65
2022/08/23 02:36:14;;;;;;;3.03;2.43;;;;;;;;;;5092696;28;20958;-66
2022/08/23 02:38:41;;;;;;;3.23;2.30;;;;;;;;;;5092745;28;20456;-66
2022/08/23 02:41:09;;;;;;;2.97;2.60;;;;;;;;;;5092688;28;20483;-66
2022/08/23 02:43:36;;;;;;;2.50;2.30;;;;;;;;;;5092525;28;20793;-66
2022/08/23 02:46:05;;;;;;;3.03;2.73;;;;;;;;;;5092015;28;20485;-66
2022/08/23 02:48:32;;;;;;;2.03;1.87;;;;;;;;;;5091841;28;20474;-66
2022/08/23 02:51:02;;;;;;;2.73;2.53;;;;;;;;;;5092307;28;20474;-66
2022/08/23 02:53:29;;;;;;;2.70;2.17;;;;;;;;;;5092604;28;20914;-67
2022/08/23 02:55:56;;;;;;;5.63;2.60;;;;;;;;;;5092406;28;20479;-66
2022/08/23 02:58:23;;;;;;;2.40;2.27;;;;;;;;;;5092416;28;20527;-67
2022/08/23 03:00:51;;;;;;;4.57;2.30;;;;;;;;;;5091816;28;20531;-66
2022/08/23 03:03:20;;;;;;;2.43;2.23;;;;;;;;;;5092642;28;20483;-66
2022/08/23 03:05:47;;;;;;;2.40;1.90;;;;;;;;;;5091097;28;20503;-67
2022/08/23 03:08:16;;;;;;;3.10;2.40;;;;;;;;;;5093021;28;20877;-66
2022/08/23 03:10:43;;;;;;;4.40;2.80;;;;;;;;;;5091734;28;20464;-67
2022/08/23 03:13:11;;;;;;;2.90;2.60;;;;;;;;;;5092251;28;20449;-66
2022/08/23 03:15:38;;;;;;;2.27;2.07;;;;;;;;;;5091394;28;20457;-66
2022/08/23 03:18:06;;;;;;;3.83;2.50;;;;;;;;;;5091316;28;20501;-66
2022/08/23 03:20:34;;;;;;;2.47;2.10;;;;;;;;;;5091417;28;20444;-66
2022/08/23 03:23:01;;;;;;;3.07;1.90;;;;;;;;;;5091606;28;20452;-66
2022/08/23 03:25:29;;;;;;;2.60;2.40;;;;;;;;;;5092409;28;20447;-66
2022/08/23 03:27:57;;;;;;;3.30;2.57;;;;;;;;;;5091345;28;20465;-66
2022/08/23 03:30:24;;;;;;;2.87;2.40;;;;;;;;;;5091422;28;20479;-66
2022/08/23 03:32:51;;;;;;;2.20;2.00;;;;;;;;;;5091189;28;20546;-66
2022/08/23 03:35:18;;;;;;;3.20;2.30;;;;;;;;;;5091714;28;21012;-66
2022/08/23 03:37:45;;;;;;;3.40;2.40;;;;;;;;;;5091238;28;20482;-66
2022/08/23 03:40:13;;;;;;;2.60;1.80;;;;;;;;;;5091355;28;20453;-66
2022/08/23 03:42:41;;;;;;;3.17;2.40;;;;;;;;;;5091405;28;20461;-66
2022/08/23 03:45:09;;;;;;;3.33;2.27;;;;;;;;;;5083167;28;20973;-67
2022/08/23 03:47:36;;;;;;;2.13;1.93;;;;;;;;;;5091620;28;20530;-66
2022/08/23 03:50:03;;;;;;;2.97;2.40;;;;;;;;;;5090507;28;20834;-67
2022/08/23 03:52:30;;;;;;;2.40;2.00;;;;;;;;;;5092003;28;20448;-67
2022/08/23 03:54:57;;;;;;;2.70;2.17;;;;;;;;;;5091150;28;20446;-67
2022/08/23 03:57:24;;;;;;;3.33;2.33;;;;;;;;;;5090996;28;20471;-66
2022/08/23 03:59:53;;;;;;;3.43;2.17;;;;;;;;;;5090479;28;20450;-67
2022/08/23 04:02:20;;;;;;;3.80;2.33;;;;;;;;;;5091016;28;20461;-66
2022/08/23 04:04:47;;;;;;;3.00;2.03;;;;;;;;;;5090865;28;20563;-66
2022/08/23 04:07:19;;;;;;;3.43;2.10;;;;;;;;;;5091576;28;20445;-66
2022/08/23 04:09:46;;;;;;;2.43;2.23;;;;;;;;;;5088486;28;20442;-66
2022/08/23 04:12:14;;;;;;;2.60;2.40;;;;;;;;;;5091140;28;20515;-66
2022/08/23 04:14:41;;;;;;;5.00;2.10;;;;;;;;;;5091114;28;20442;-67
2022/08/23 04:17:09;;;;;;;2.17;1.97;;;;;;;;;;5090891;28;20479;-66
2022/08/23 04:19:36;;;;;;;2.83;2.40;;;;;;;;;;5090706;28;20448;-66
2022/08/23 04:22:04;;;;;;;2.47;2.27;;;;;;;;;;5090708;28;20453;-66
2022/08/23 04:24:31;;;;;;;2.60;1.93;;;;;;;;;;5091016;28;20802;-66
2022/08/23 04:26:58;;;;;;;3.17;1.87;;;;;;;;;;5090584;28;20528;-66
2022/08/23 04:29:26;;;;;;;2.33;2.10;;;;;;;;;;5090340;28;20445;-66
2022/08/23 04:31:53;;;;;;;2.83;2.33;;;;;;;;;;5088374;28;20457;-67
2022/08/23 04:34:21;;;;;;;2.53;2.33;;;;;;;;;;5090740;28;20474;-66
2022/08/23 04:36:48;;;;;;;2.60;2.40;;;;;;;;;;5090548;28;20517;-66
2022/08/23 04:39:16;;;;;;;2.30;1.93;;;;;;;;;;5090392;28;20532;-67
2022/08/23 04:44:29;;;;;;;2.10;1.90;;;;;;;;;;5090820;28;20446;-67
2022/08/23 04:46:56;;;;;;;3.33;2.23;;;;;;;;;;5090187;28;20453;-67
2022/08/23 04:49:24;;;;;;;2.87;2.50;;;;;;;;;;5079681;28;20537;-69
2022/08/23 04:51:52;;;;;;;3.00;2.47;;;;;;;;;;5090324;28;20467;-68
2022/08/23 04:54:19;;;;;;;2.80;2.47;;;;;;;;;;5089613;28;20447;-68
2022/08/23 04:56:46;;;;;;;2.63;2.20;;;;;;;;;;5089867;28;21057;-67
2022/08/23 04:59:13;;;;;;;4.07;2.30;;;;;;;;;;5089962;28;20803;-66
2022/08/23 05:01:41;;;;;;;2.90;2.60;;;;;;;;;;5090509;28;20463;-66
2022/08/23 05:04:08;;;;;;;2.43;2.23;;;;;;;;;;5090031;28;20808;-67
2022/08/23 05:06:37;;;;;;;4.40;3.03;;;;;;;;;;5090646;28;20462;-66
2022/08/23 05:09:04;;;;;;;2.40;2.20;;;;;;;;;;5089711;28;20539;-68
2022/08/23 05:11:31;;;;;;;2.87;2.57;;;;;;;;;;5090279;28;20450;-69
2022/08/23 05:13:58;;;;;;;2.47;2.27;;;;;;;;;;5089821;28;20536;-68
2022/08/23 05:16:25;;;;;;;2.10;1.70;;;;;;;;;;5090005;28;20446;-68
2022/08/23 05:18:53;;;;;;;2.67;2.17;;;;;;;;;;5082081;28;20489;-68
2022/08/23 05:21:21;;;;;;;2.47;2.23;;;;;;;;;;5090216;28;20902;-68
2022/08/23 05:23:49;;;;;;;2.77;2.27;;;;;;;;;;5089828;28;20532;-69
2022/08/23 05:26:16;;;;;;;2.80;2.10;;;;;;;;;;5089678;28;20492;-69
2022/08/23 05:28:47;;;;;;;2.60;2.40;;;;;;;;;;5089521;28;20541;-68
2022/08/23 05:31:16;;;;;;;2.20;1.87;;;;;;;;;;5090116;28;20525;-67
2022/08/23 05:33:43;;;;;;;2.57;2.33;;;;;;;;;;5090118;28;20464;-68
2022/08/23 05:36:11;;;;;;;2.30;1.93;;;;;;;;;;5089729;28;20479;-68
2022/08/23 05:38:39;;;;;;;3.53;2.40;;;;;;;;;;5089667;28;20494;-68
2022/08/23 05:41:08;;;;;;;2.27;2.07;;;;;;;;;;5089340;28;20456;-68
2022/08/23 05:43:35;;;;;;;2.47;2.27;;;;;;;;;;5089971;28;20475;-68
2022/08/23 05:46:03;;;;;;;8.13;2.80;;;;;;;;;;5089368;28;20457;-68
2022/08/23 05:48:31;;;;;;;2.70;2.40;;;;;;;;;;5089281;28;20452;-68
2022/08/23 05:50:58;;;;;;;3.67;2.50;;;;;;;;;;5089491;28;20955;-69
2022/08/23 05:53:25;;;;;;;3.93;2.67;;;;;;;;;;5089822;28;20530;-68
2022/08/23 05:55:52;;;;;;;2.23;2.00;;;;;;;;;;5089902;28;20449;-68
2022/08/23 05:58:21;;;;;;;2.33;2.00;;;;;;;;;;5089266;28;20492;-68
2022/08/23 06:00:48;;;;;;;2.40;2.17;;;;;;;;;;5089754;28;21016;-68
2022/08/23 06:03:15;;;;;;;2.30;2.07;;;;;;;;;;5089443;28;21014;-68
2022/08/23 06:05:42;;;;;;;2.03;1.93;;;;;;;;;;5090935;28;20795;-68
2022/08/23 06:08:10;;;;;;;4.03;2.10;;;;;;;;;;5092972;28;21066;-68
2022/08/23 06:10:37;;;;;;;2.43;1.83;;;;;;;;;;5093766;28;20452;-68
2022/08/23 06:13:04;;;;;;;2.30;2.10;;;;;;;;;;5093134;28;20995;-68
2022/08/23 06:15:33;;;;;;;2.87;2.27;;;;;;;;;;5093824;28;20519;-68
2022/08/23 06:18:00;;;;;;;2.03;1.80;;;;;;;;;;5092816;28;20516;-69
2022/08/23 06:20:28;;;;;;;2.20;1.87;;;;;;;;;;5093478;28;20448;-68
2022/08/23 06:22:55;;;;;;;3.60;2.03;;;;;;;;;;5093234;28;20437;-68
2022/08/23 06:25:22;;;;;;;2.73;2.50;;;;;;;;;;5093592;28;20453;-69
2022/08/23 06:27:49;;;;;;;5.73;2.10;;;;;;;;;;5092485;28;20448;-68
2022/08/23 06:30:17;;;;;;;4.00;1.90;;;;;;;;;;5093679;28;20578;-69
2022/08/23 06:32:45;;;;;;;2.83;2.07;;;;;;;;;;5093045;28;20880;-69
2022/08/23 06:35:13;;;;;;;7.60;2.63;;;;;;;;;;5093049;28;21066;-69
2022/08/23 06:37:40;;;;;;;2.13;1.93;;;;;;;;;;5092611;28;20691;-69
2022/08/23 06:40:08;;;;;;;2.10;1.90;;;;;;;;;;5092681;28;20445;-68
2022/08/23 06:42:35;;;;;;;2.40;2.20;;;;;;;;;;5092894;28;20866;-69
2022/08/23 06:45:02;;;;;;;2.50;2.17;;;;;;;;;;5092632;28;20452;-69
2022/08/23 06:47:30;;;;;;;4.30;2.63;;;;;;;;;;5092738;28;20453;-68
2022/08/23 06:49:58;;;;;;;3.50;2.70;;;;;;;;;;5092644;28;20453;-69
2022/08/23 06:52:27;;;;;;;3.07;1.93;;;;;;;;;;5092706;28;20459;-68
2022/08/23 06:54:54;;;;;;;3.00;2.57;;;;;;;;;;5092425;28;20449;-69
2022/08/23 06:57:21;;;;;;;2.00;1.90;;;;;;;;;;5092473;28;20484;-69
2022/08/23 06:59:49;;;;;;;3.30;2.57;;;;;;;;;;5092494;28;20444;-69
2022/08/23 07:02:16;;;;;;;3.87;2.10;;;;;;;;;;5092680;28;20461;-69
2022/08/23 07:04:43;;;;;;;5.80;3.30;;;;;;;;;;5092758;28;20795;-68
2022/08/23 07:07:12;;;;;;;2.83;2.53;;;;;;;;;;5091934;28;20451;-69
2022/08/23 07:09:39;;;;;;;2.60;2.40;;;;;;;;;;5092828;28;20451;-69
2022/08/23 07:12:07;;;;;;;3.80;2.80;;;;;;;;;;5092225;28;20455;-69
2022/08/23 07:14:35;;;;;;;2.40;2.13;;;;;;;;;;5092486;28;20525;-69
2022/08/23 07:17:03;;;;;;;4.80;2.57;;;;;;;;;;5084240;28;20449;-69
2022/08/23 07:19:31;;;;;;;2.40;2.20;;;;;;;;;;5092155;28;20829;-68
2022/08/23 07:21:59;;;;;;;2.83;2.60;;;;;;;;;;5091920;28;20485;-69
2022/08/23 07:24:28;;;;;;;2.93;2.30;;;;;;;;;;5092030;28;20535;-69
2022/08/23 07:26:55;;;;;;;1.93;1.80;;;;;;;;;;5091748;28;20445;-69
2022/08/23 07:29:23;;;;;;;4.00;2.33;;;;;;;;;;5092230;28;21232;-68
2022/08/23 07:31:52;;;;;;;4.40;2.23;;;;;;;;;;5091799;28;20452;-69
2022/08/23 07:34:20;;;;;;;3.30;2.60;;;;;;;;;;5091735;28;20971;-69
2022/08/23 07:36:47;;;;;;;2.37;2.10;;;;;;;;;;5091206;28;20441;-69
2022/08/23 07:39:15;;;;;;;3.37;2.00;;;;;;;;;;5092363;28;20610;-69
2022/08/23 07:41:45;;;;;;;3.17;1.93;;;;;;;;;;5092364;28;20452;-68
2022/08/23 07:44:16;;;;;;;2.50;2.00;;;;;;;;;;5092056;28;20456;-69
2022/08/23 07:46:44;;;;;;;2.57;2.27;;;;;;;;;;5091602;28;20444;-68
2022/08/23 07:49:12;;;;;;;3.67;2.10;;;;;;;;;;5091706;28;20879;-69
2022/08/23 07:51:40;;;;;;;2.67;2.47;;;;;;;;;;5092104;28;20448;-69
2022/08/23 07:54:08;;;;;;;2.27;2.07;;;;;;;;;;5091399;28;20445;-69
2022/08/23 07:56:35;;;;;;;2.93;2.37;;;;;;;;;;5091395;28;21004;-69
2022/08/23 07:59:04;;;;;;;3.47;2.60;;;;;;;;;;5091085;28;20519;-68
2022/08/23 08:01:32;;;;;;;3.27;2.70;;;;;;;;;;5091361;28;20459;-69
2022/08/23 08:04:00;;;;;;;2.27;2.00;;;;;;;;;;5091117;28;20448;-69
2022/08/23 08:06:28;;;;;;;3.07;2.10;;;;;;;;;;5090998;28;20544;-69
2022/08/23 08:08:56;;;;;;;3.50;2.60;;;;;;;;;;5091366;28;20786;-69
2022/08/23 08:11:25;;;;;;;2.03;1.90;;;;;;;;;;5091392;28;20455;-68
2022/08/23 08:13:53;;;;;;;5.00;2.60;;;;;;;;;;5090881;28;20525;-69
2022/08/23 08:16:23;;;;;;;4.93;2.90;;;;;;;;;;5090889;28;20463;-69
2022/08/23 08:18:50;;;;;;;2.20;2.00;;;;;;;;;;5090534;28;20481;-69
2022/08/23 08:21:18;;;;;;;2.97;1.87;;;;;;;;;;5091298;28;20795;-69
2022/08/23 08:23:45;;;;;;;2.20;2.00;;;;;;;;;;5091251;28;20461;-70
2022/08/23 08:26:13;;;;;;;3.17;2.40;;;;;;;;;;5090784;28;20453;-69
2022/08/23 08:28:40;;;;;;;2.53;2.10;;;;;;;;;;5090317;28;20453;-70
2022/08/23 08:31:08;;;;;;;2.07;1.80;;;;;;;;;;5090819;28;20460;-69
2022/08/23 08:33:37;;;;;;;1.67;1.57;;;;;;;;;;5091192;28;20464;-69
2022/08/23 08:36:04;;;;;;;3.30;2.33;;;;;;;;;;5090384;28;20555;-69
2022/08/23 08:38:32;;;;;;;1.70;1.60;;;;;;;;;;5090520;28;20843;-69
2022/08/23 08:41:02;;;;;;;5.90;1.90;;;;;;;;;;5090358;28;20453;-69
2022/08/23 08:43:35;;;;;;;2.37;1.90;;;;;;;;;;5091239;28;20535;-69
2022/08/23 08:46:04;;;;;;;2.60;2.00;;;;;;;;;;5090453;28;20445;-69
2022/08/23 08:48:37;;;;;;;3.73;1.80;;;;;;;;;;5090528;28;20459;-69
2022/08/23 08:51:14;;;;;;;4.30;3.50;;;;;;;;;;5090133;28;20535;-69
2022/08/23 08:53:45;;;;;;;1.90;1.50;;;;;;;;;;5090600;28;20453;-69
2022/08/23 08:56:19;;;;;;;2.73;1.90;;;;;;;;;;5090805;28;20444;-69
2022/08/23 08:58:49;;;;;;;3.37;1.77;;;;;;;;;;5090052;28;20476;-69
2022/08/23 09:01:17;;;;;;;2.33;1.97;;;;;;;;;;5090301;28;20940;-69
2022/08/23 09:03:44;;;;;;;2.03;1.83;;;;;;;;;;5090267;28;21003;-69
2022/08/23 09:06:15;;;;;;;2.77;2.17;;;;;;;;;;5090048;28;20535;-69
2022/08/23 09:08:49;;;;;;;2.90;2.40;;;;;;;;;;5090741;28;20453;-69
2022/08/23 09:11:21;;;;;;;2.63;2.43;;;;;;;;;;5090313;28;20481;-69
2022/08/23 09:14:00;;;;;;;3.27;2.13;;;;;;;;;;5077409;28;20636;-68
2022/08/23 09:16:32;;;;;;;2.30;2.10;;;;;;;;;;5089537;28;20488;-69
2022/08/23 09:19:00;;;;;;;3.50;1.80;;;;;;;;;;5090896;28;20483;-69
2022/08/23 09:21:30;;;;;;;4.50;2.30;;;;;;;;;;5100359;28;20539;-69
2022/08/23 09:23:57;;;;;;;1.70;1.60;;;;;;;;;;5090853;28;20463;-69
2022/08/23 09:26:26;;;;;;;2.30;2.10;;;;;;;;;;5090376;28;20475;-69
2022/08/23 09:28:54;;;;;;;1.90;1.57;;;;;;;;;;5090104;28;20457;-69
2022/08/23 09:31:36;;;;;;;2.77;2.13;;;;;;;;;;5090375;28;20490;-69
2022/08/23 09:34:03;;;;;;;2.10;1.90;;;;;;;;;;5087636;28;20880;-69
2022/08/23 09:36:34;;;;;;;4.27;2.20;;;;;;;;;;5090446;28;20432;-69
2022/08/23 09:39:03;;;;;;;2.27;1.90;;;;;;;;;;5090200;28;20472;-69
2022/08/23 09:41:35;;;;;;;2.60;1.90;;;;;;;;;;5097376;28;20535;-69
2022/08/23 09:44:02;;;;;;;3.73;1.70;;;;;;;;;;5097027;28;20437;-69
2022/08/23 09:46:31;;;;;;;3.10;1.90;;;;;;;;;;5097093;28;20445;-69
2022/08/23 09:49:00;;;;;;;2.53;1.80;;;;;;;;;;5096405;28;20931;-69
2022/08/23 09:51:30;;;;;;;1.53;1.43;;;;;;;;;;5097266;28;20455;-69
2022/08/23 09:54:05;;;;;;;2.60;1.83;;;;;;;;;;5096643;28;20602;-69
2022/08/23 09:56:34;;;;;;;2.40;1.70;;;;;;;;;;5097058;28;20528;-69
2022/08/23 09:59:02;;;;;;;1.67;1.57;;;;;;;;;;5096682;28;20480;-69
2022/08/23 10:01:31;;;;;;;2.07;1.87;;;;;;;;;;5096942;28;20527;-69
2022/08/23 10:04:10;;;;;;;1.57;1.47;;;;;;;;;;5096250;28;20448;-69
2022/08/23 10:06:38;;;;;;;2.30;1.67;;;;;;;;;;5096624;28;20552;-69
2022/08/23 10:09:08;;;;;;;2.77;1.70;;;;;;;;;;5096348;28;20722;-69
2022/08/23 10:11:37;;;;;;;2.80;1.70;;;;;;;;;;5096811;28;20468;-69
2022/08/23 10:14:05;;;;;;;2.10;1.83;;;;;;;;;;5096639;28;20865;-69
2022/08/23 10:16:37;;;;;;;1.97;1.50;;;;;;;;;;5096650;28;20794;-69
2022/08/23 10:19:07;;;;;;;3.10;1.30;;;;;;;;;;5096469;28;20476;-69
2022/08/23 10:21:39;;;;;;;1.60;1.50;;;;;;;;;;5096907;28;20444;-69
2022/08/23 10:24:14;;;;;;;2.03;1.83;;;;;;;;;;5096553;28;20440;-70
2022/08/23 10:26:45;;;;;;;1.63;1.53;;;;;;;;;;5096902;28;20462;-70
2022/08/23 10:32:06;;;;;;;1.50;1.37;;;;;;;;;;5096584;28;20443;-70
2022/08/23 10:34:40;;;;;;;1.80;1.50;;;;;;;;;;5096563;28;20838;-69
2022/08/23 10:37:14;;;;;;;2.00;1.70;;;;;;;;;;5096105;28;20439;-69
2022/08/23 10:39:46;;;;;;;1.80;1.70;;;;;;;;;;5096826;28;20525;-70
2022/08/23 10:42:18;;;;;;;1.83;1.73;;;;;;;;;;5097216;28;20447;-69
2022/08/23 10:44:49;;;;;;;1.67;1.57;;;;;;;;;;5096175;28;21000;-68
2022/08/23 10:47:19;;;;;;;1.30;1.20;;;;;;;;;;5096282;28;20444;-69
2022/08/23 10:49:49;;;;;;;1.80;1.70;;;;;;;;;;5096326;28;20440;-69
2022/08/23 10:52:19;;;;;;;3.53;1.60;;;;;;;;;;5093616;28;20432;-69
2022/08/23 10:54:58;;;;;;;1.50;1.40;;;;;;;;;;5093291;28;20531;-69
2022/08/23 10:57:29;;;;;;;1.60;1.50;;;;;;;;;;5093061;28;20441;-69
2022/08/23 10:59:57;;;;;;;2.03;1.83;;;;;;;;;;5092733;28;20482;-69
2022/08/23 11:02:30;;;;;;;1.70;1.60;;;;;;;;;;5093341;28;20456;-69
2022/08/23 11:05:01;;;;;;;2.03;1.83;;;;;;;;;;5092586;28;20449;-69
2022/08/23 11:07:30;;;;;;;2.10;1.80;;;;;;;;;;5093085;28;20518;-69
2022/08/23 11:10:08;;;;;;;1.57;1.47;;;;;;;;;;5092894;28;20543;-70
2022/08/23 11:12:50;;;;;;;2.13;1.90;;;;;;;;;;5093117;28;20440;-70
2022/08/23 11:15:22;;;;;;;3.43;2.20;;;;;;;;;;5093276;28;20472;-70
2022/08/23 11:18:00;;;;;;;4.83;1.87;;;;;;;;;;5092400;28;20467;-69
2022/08/23 11:20:46;;;;;;;5.17;1.60;;;;;;;;;;5092948;28;20834;-69
2022/08/23 11:23:14;;;;;;;2.90;1.67;;;;;;;;;;5093429;28;20444;-70
2022/08/23 11:25:44;;;;;;;2.53;2.10;;;;;;;;;;5093161;28;20450;-70
2022/08/23 11:28:32;;;;;;;1.83;1.60;;;;;;;;;;5092350;28;20478;-70
2022/08/23 11:31:18;;;;;;;1.50;1.40;;;;;;;;;;5087853;28;20530;-69
2022/08/23 11:33:47;;;;;;;2.00;1.90;;;;;;;;;;5093259;28;20440;-69
2022/08/23 11:36:20;;;;;;;2.37;1.97;;;;;;;;;;5092468;28;20451;-70
2022/08/23 11:39:05;;;;;;;1.50;1.33;;;;;;;;;;5092263;28;20535;-69
2022/08/23 11:41:35;;;;;;;1.93;1.53;;;;;;;;;;5092744;28;20440;-70
2022/08/23 11:44:20;;;;;;;1.83;1.73;;;;;;;;;;5092077;28;20449;-69
2022/08/23 11:46:59;;;;;;;1.73;1.53;;;;;;;;;;5091415;28;20939;-69
2022/08/23 11:49:32;;;;;;;2.40;2.20;;;;;;;;;;5092408;28;20448;-69
2022/08/23 11:52:03;;;;;;;2.90;1.93;;;;;;;;;;5091658;28;20437;-70
2022/08/23 11:54:38;;;;;;;3.00;2.07;;;;;;;;;;5092616;28;20782;-70
2022/08/23 11:57:14;;;;;;;2.97;2.20;;;;;;;;;;5091126;28;20861;-69
2022/08/23 11:59:57;;;;;;;2.30;1.83;;;;;;;;;;5092285;28;20479;-70
2022/08/23 12:02:36;;;;;;;2.63;1.70;;;;;;;;;;5073994;28;20811;-69
2022/08/23 12:05:06;;;;;;;2.67;2.20;;;;;;;;;;5090391;28;20988;-70
2022/08/23 12:07:51;;;;;;;3.17;2.00;;;;;;;;;;5091332;28;20448;-70
2022/08/23 12:10:23;;;;;;;1.93;1.80;;;;;;;;;;5091747;28;20531;-70
2022/08/23 12:16:11;;;;;;;2.87;1.67;;;;;;;;;;5087106;27;20518;-69
2022/08/23 12:18:40;;;;;;;2.33;1.97;;;;;;;;;;5054899;28;20452;-70
2022/08/23 12:21:09;;;;;;;1.80;1.70;;;;;;;;;;5066949;28;20528;-69
2022/08/23 12:23:44;;;;;;;1.83;1.60;;;;;;;;;;5067574;28;20920;-71
2022/08/23 12:26:14;;;;;;;2.20;1.83;;;;;;;;;;5067312;28;20440;-69
2022/08/23 12:28:44;;;;;;;2.17;1.90;;;;;;;;;;5067851;28;20456;-70
2022/08/23 12:31:17;;;;;;;1.97;1.80;;;;;;;;;;5067700;28;20445;-70
2022/08/23 12:33:49;;;;;;;2.50;1.50;;;;;;;;;;5067785;28;20831;-70
2022/08/23 12:36:22;;;;;;;1.67;1.57;;;;;;;;;;5066763;28;20924;-70
2022/08/23 12:38:56;;;;;;;2.23;1.83;;;;;;;;;;5066676;28;20532;-69
2022/08/23 12:41:25;;;;;;;2.07;1.87;;;;;;;;;;5067158;28;20445;-69
2022/08/23 12:43:57;;;;;;;2.73;2.47;;;;;;;;;;5066400;28;20464;-69
2022/08/23 12:46:38;;;;;;;2.20;2.00;;;;;;;;;;5066646;28;20445;-70
2022/08/23 12:49:06;;;;;;;2.33;1.80;;;;;;;;;;5066709;28;20485;-70
2022/08/23 12:51:40;;;;;;;1.87;1.73;;;;;;;;;;5066990;28;20524;-70
2022/08/23 12:54:14;;;;;;;1.73;1.60;;;;;;;;;;5066035;28;20491;-70
2022/08/23 12:56:45;;;;;;;2.00;1.90;;;;;;;;;;5066943;28;20882;-70
2022/08/23 12:59:25;;;;;;;1.90;1.80;;;;;;;;;;5067189;28;20445;-69
2022/08/23 13:01:53;;;;;;;2.30;1.70;;;;;;;;;;5066336;28;20448;-69
2022/08/23 13:04:20;;;;;;;1.90;1.47;;;;;;;;;;5066492;28;20531;-70
2022/08/23 13:06:53;;;;;;;2.70;1.60;;;;;;;;;;5065266;28;20211;-69
2022/08/23 13:09:25;;;;;;;2.20;1.90;;;;;;;;;;5066952;28;20939;-69
2022/08/23 13:11:52;;;;;;;2.50;1.87;;;;;;;;;;5066092;28;20301;-70
2022/08/23 13:14:23;;;;;;;2.13;2.00;;;;;;;;;;5066359;28;20497;-70
2022/08/23 13:16:50;;;;;;;2.30;1.53;;;;;;;;;;5065229;28;20622;-71
2022/08/23 13:19:23;;;;;;;2.10;1.90;;;;;;;;;;5066665;28;20301;-70
2022/08/23 13:22:05;;;;;;;1.60;1.50;;;;;;;;;;5065721;28;20205;-69
2022/08/23 13:24:36;;;;;;;1.73;1.63;;;;;;;;;;5066076;28;20233;-70
2022/08/23 13:27:15;;;;;;;2.00;1.90;;;;;;;;;;5052364;28;20210;-69
2022/08/23 13:29:52;;;;;;;2.30;2.03;;;;;;;;;;5053458;28;20202;-69
2022/08/23 13:32:32;;;;;;;2.27;1.80;;;;;;;;;;5052909;28;20285;-69
2022/08/23 13:35:17;;;;;;;2.23;1.77;;;;;;;;;;5052224;28;20208;-69
2022/08/23 13:37:47;;;;;;;1.73;1.50;;;;;;;;;;5052800;28;20197;-69
2022/08/23 13:40:20;;;;;;;1.67;1.57;;;;;;;;;;5053200;28;20302;-69
2022/08/23 13:42:48;;;;;;;1.93;1.83;;;;;;;;;;5052290;28;20610;-69
2022/08/23 13:45:16;;;;;;;2.17;1.80;;;;;;;;;;5052818;28;20203;-69
2022/08/23 13:47:47;;;;;;;2.30;1.70;;;;;;;;;;5052394;28;20227;-70
2022/08/23 13:50:16;;;;;;;3.97;2.08;;;;;;;;;;5052689;28;20230;-69
2022/08/23 13:52:43;;;;;;;2.90;1.90;;;;;;;;;;5052987;28;20200;-69
2022/08/23 13:55:12;;;;;;;2.10;1.90;;;;;;;;;;5052347;28;20234;-69
2022/08/23 13:57:39;;;;;;;1.60;1.50;;;;;;;;;;5052287;28;20254;-69
2022/08/23 14:00:09;;;;;;;2.50;2.30;;;;;;;;;;5052079;28;20210;-69
2022/08/23 14:02:36;;;;;;;2.60;1.90;;;;;;;;;;5052842;28;20382;-69
2022/08/23 14:05:03;;;;;;;3.10;1.80;;;;;;;;;;5051535;28;20207;-69
2022/08/23 14:07:30;;;;;;;2.20;2.00;;;;;;;;;;5052213;28;20205;-69
2022/08/23 14:09:58;;;;;;;2.33;2.10;;;;;;;;;;5051967;28;20290;-71
2022/08/23 14:12:28;;;;;;;1.80;1.70;;;;;;;;;;5052175;28;20199;-70
2022/08/23 14:14:56;;;;;;;2.40;2.20;;;;;;;;;;5051543;28;20326;-69
2022/08/23 14:17:23;;;;;;;2.20;1.97;;;;;;;;;;5052177;28;20199;-69
2022/08/23 14:19:50;;;;;;;2.07;1.87;;;;;;;;;;5051724;28;20234;-69
2022/08/23 14:22:17;;;;;;;1.93;1.80;;;;;;;;;;5052168;28;20559;-69
2022/08/23 14:24:45;;;;;;;2.20;1.87;;;;;;;;;;5052050;28;20235;-69
2022/08/23 14:27:12;;;;;;;2.10;1.90;;;;;;;;;;5051922;28;20646;-69
2022/08/23 14:29:41;;;;;;;3.13;2.00;;;;;;;;;;5051855;28;20203;-69
2022/08/23 14:32:08;;;;;;;1.75;1.65;;;;;;;;;;5051410;28;20242;-69
2022/08/23 14:34:35;;;;;;;2.72;2.00;;;;;;;;;;5051727;28;20361;-69
2022/08/23 14:37:02;;;;;;;2.00;1.90;;;;;;;;;;5049942;28;20203;-69
2022/08/23 14:39:30;;;;;;;2.35;1.80;;;;;;;;;;5051616;28;20310;-69
2022/08/23 14:41:57;;;;;;;2.95;1.88;;;;;;;;;;5051049;28;20324;-69
2022/08/23 14:44:25;;;;;;;4.00;2.00;;;;;;;;;;5051918;28;20206;-69
2022/08/23 14:46:53;;;;;;;2.03;1.83;;;;;;;;;;5050963;28;20196;-69
2022/08/23 14:49:20;;;;;;;2.05;1.80;;;;;;;;;;5051897;28;20507;-69
2022/08/23 14:51:49;;;;;;;1.83;1.73;;;;;;;;;;5050889;28;20672;-69
2022/08/23 14:54:19;;;;;;;2.75;1.83;;;;;;;;;;5051283;28;20206;-70
2022/08/23 14:56:46;;;;;;;1.50;1.40;;;;;;;;;;5050503;28;20223;-69
2022/08/23 14:59:13;;;;;;;4.25;1.80;;;;;;;;;;5051479;28;20200;-69
2022/08/23 15:01:41;;;;;;;2.90;2.25;;;;;;;;;;5051547;28;20206;-69
2022/08/23 15:04:10;;;;;;;2.70;2.10;;;;;;;;;;5050776;28;20655;-69
2022/08/23 15:06:39;;;;;;;1.77;1.67;;;;;;;;;;5050893;28;20674;-69
2022/08/23 15:09:07;;;;;;;2.22;1.88;;;;;;;;;;5050969;28;20204;-69
2022/08/23 15:11:34;;;;;;;2.00;1.88;;;;;;;;;;5051128;28;20722;-69